Time;durP1;ratioP1;P1;durP2;ratioP2;P2;SDS_P1;SDS_P2;PMS_P1;PMS_P2;Temp;Humidity;BMP_temperature;BMP_pressure;BME280_temperature;BME280_humidity;BME280_pressure;Samples;Min_cycle;Max_cycle;Signal;HPM_P1;HPM_P2
2021/12/18 00:00:46;;;;;;;22.27;11.87;;;0.90;99.90;-0.20;101780;;;;583191;241;24084;-77
2021/12/18 00:03:15;;;;;;;25.90;15.37;;;0.90;99.90;-0.20;101774;;;;582075;246;24115;-76
2021/12/18 00:05:43;;;;;;;30.13;19.77;;;0.90;99.90;-0.20;101780;;;;573262;246;24137;-75
2021/12/18 00:08:10;;;;;;;33.20;23.67;;;0.90;99.90;-0.20;101779;;;;583408;246;24079;-77
2021/12/18 00:10:38;;;;;;;25.53;15.17;;;0.90;99.90;-0.30;101777;;;;574491;246;24060;-74
2021/12/18 00:13:06;;;;;;;25.57;13.63;;;0.90;99.90;-0.20;101778;;;;583468;246;24080;-76
2021/12/18 00:15:34;;;;;;;26.70;11.13;;;0.90;99.90;-0.20;101771;;;;584009;244;24093;-76
2021/12/18 00:18:02;;;;;;;28.93;10.63;;;0.90;99.90;-0.20;101772;;;;584583;245;24079;-76
2021/12/18 00:20:31;;;;;;;23.90;11.97;;;0.90;99.90;-0.20;101776;;;;575479;245;24080;-76
2021/12/18 00:22:59;;;;;;;22.53;12.27;;;0.90;99.90;-0.10;101772;;;;575276;245;24092;-76
2021/12/18 00:25:31;;;;;;;28.80;13.67;;;0.90;99.90;-0.10;101770;;;;584017;245;24044;-76
2021/12/18 00:27:56;;;;;;;20.00;9.05;;;1.00;99.90;-0.10;101765;;;;569003;245;35060;-77
2021/12/18 00:30:23;;;;;;;15.20;7.60;;;1.00;99.90;-0.10;101771;;;;573779;245;24057;-75
2021/12/18 00:32:56;;;;;;;11.73;5.37;;;1.00;99.90;0.00;101775;;;;574991;245;24048;-75
2021/12/18 00:35:20;;;;;;;13.20;6.73;;;1.00;99.90;0.00;101774;;;;574462;246;24062;-78
2021/12/18 00:37:48;;;;;;;18.60;7.10;;;1.10;99.90;0.10;101770;;;;574803;246;24084;-75
2021/12/18 00:40:23;;;;;;;10.00;5.20;;;1.10;99.90;0.10;101772;;;;574685;246;25200;-77
2021/12/18 00:42:58;;;;;;;14.07;5.23;;;1.20;99.90;0.20;101793;;;;583256;246;24097;-75
2021/12/18 00:45:17;;;;;;;12.70;5.83;;;1.30;99.90;0.20;101797;;;;573948;246;24114;-76
2021/12/18 00:47:45;;;;;;;21.58;10.60;;;1.30;99.90;0.30;101811;;;;570112;246;35161;-76
2021/12/18 00:50:16;;;;;;;10.97;5.00;;;1.30;99.90;0.40;101810;;;;576030;241;24078;-76
2021/12/18 00:52:44;;;;;;;17.80;6.07;;;1.40;99.90;0.50;101806;;;;585431;241;24026;-76
2021/12/18 00:55:16;;;;;;;10.83;5.07;;;1.50;99.90;0.50;101813;;;;585441;241;24076;-77
2021/12/18 00:57:40;;;;;;;16.43;5.70;;;1.60;99.90;0.60;101803;;;;585255;241;24057;-76
2021/12/18 01:00:08;;;;;;;13.10;4.83;;;1.70;99.90;0.60;101796;;;;585123;241;24065;-76
2021/12/18 01:02:37;;;;;;;10.83;5.20;;;1.70;99.90;0.70;101800;;;;575227;245;24130;-77
2021/12/18 01:05:05;;;;;;;7.97;4.17;;;1.80;99.90;0.70;101793;;;;575165;245;24100;-76
2021/12/18 01:07:33;;;;;;;9.10;4.33;;;1.80;99.90;0.80;101803;;;;564983;250;24242;-77
2021/12/18 01:12:36;;;;;;;9.00;4.43;;;1.90;99.90;0.90;101797;;;;566945;250;24115;-77
2021/12/18 01:15:16;;;;;;;7.63;4.00;;;2.00;99.90;0.90;101793;;;;577380;245;24086;-77
2021/12/18 01:23:08;;;;;;;7.57;3.97;;;2.10;99.90;1.10;101790;;;;587402;244;25196;-77
2021/12/18 01:25:37;;;;;;;6.23;3.53;;;2.10;99.90;1.10;101794;;;;578105;244;24099;-76
2021/12/18 01:28:05;;;;;;;9.20;4.03;;;2.10;99.90;1.10;101783;;;;579210;243;24065;-77
2021/12/18 01:30:33;;;;;;;8.03;3.70;;;2.20;99.90;1.20;101788;;;;579949;241;24118;-76
2021/12/18 01:33:00;;;;;;;7.60;3.80;;;2.20;99.90;1.20;101789;;;;579486;243;24060;-77
2021/12/18 01:35:28;;;;;;;5.33;3.03;;;2.30;99.90;1.30;101786;;;;578884;243;24119;-75
2021/12/18 01:37:57;;;;;;;9.20;4.20;;;2.30;99.90;1.30;101783;;;;578697;244;24083;-75
2021/12/18 01:40:24;;;;;;;8.60;2.57;;;2.30;99.90;1.30;101787;;;;578539;243;24062;-77
2021/12/18 01:43:15;;;;;;;6.57;2.43;;;2.40;99.90;1.30;101776;;;;579464;244;24081;-76
2021/12/18 01:45:30;;;;;;;4.20;2.87;;;2.40;99.90;1.40;101776;;;;574540;244;24097;-75
2021/12/18 01:53:20;;;;;;;8.03;3.47;;;2.40;99.90;1.40;101768;;;;588236;243;24046;-76
2021/12/18 01:55:50;;;;;;;16.15;7.05;;;2.40;99.90;1.40;101766;;;;571265;244;35198;-76
2021/12/18 01:58:21;;;;;;;16.05;7.47;;;2.40;99.90;1.40;101774;;;;573642;244;35219;-76
2021/12/18 02:00:44;;;;;;;11.13;4.37;;;2.40;99.90;1.40;101751;;;;578787;244;24099;-77
2021/12/18 02:03:12;;;;;;;8.73;2.57;;;2.40;99.90;1.50;101772;;;;587638;244;24099;-77
2021/12/18 02:05:40;;;;;;;10.20;4.50;;;2.50;99.90;1.40;101763;;;;578192;244;24065;-77
2021/12/18 02:08:08;;;;;;;6.37;4.10;;;2.50;99.90;1.40;101760;;;;578522;244;24087;-75
2021/12/18 02:13:35;;;;;;;12.83;3.40;;;2.50;99.90;1.40;101752;;;;590030;243;24056;-76
2021/12/18 02:21:23;;;;;;;5.23;3.63;;;2.50;99.90;1.40;101745;;;;587983;244;24054;-77
2021/12/18 02:23:49;;;;;;;6.40;3.27;;;2.50;99.90;1.40;101748;;;;578772;244;25209;-76
2021/12/18 02:26:17;;;;;;;7.70;3.70;;;2.50;99.90;1.40;101748;;;;578970;244;24172;-75
2021/12/18 02:28:48;;;;;;;9.50;4.83;;;2.40;99.90;1.40;101742;;;;587870;244;24125;-75
2021/12/18 02:31:13;;;;;;;6.10;3.87;;;2.50;99.90;1.40;101744;;;;578890;244;24116;-76
2021/12/18 02:33:44;;;;;;;13.23;4.77;;;2.50;99.90;1.40;101735;;;;576053;244;24059;-77
2021/12/18 02:36:11;;;;;;;11.17;4.40;;;2.50;99.90;1.40;101727;;;;577963;244;24105;-75
2021/12/18 02:41:40;;;;;;;5.87;4.50;;;2.50;99.90;1.50;101715;;;;580220;243;24129;-78
2021/12/18 02:44:08;;;;;;;19.03;5.70;;;2.50;99.90;1.50;101711;;;;579784;244;24074;-75
2021/12/18 02:46:36;;;;;;;7.63;4.53;;;2.60;99.90;1.50;101704;;;;578479;244;24072;-74
2021/12/18 02:49:14;;;;;;;7.63;4.97;;;2.60;99.90;1.50;101702;;;;576151;244;24070;-73
2021/12/18 02:51:42;;;;;;;2.73;2.53;;;2.60;99.90;1.50;101702;;;;579187;244;24068;-74
2021/12/18 02:54:10;;;;;;;10.17;4.97;;;2.60;99.90;1.50;101695;;;;587939;244;24076;-75
2021/12/18 02:56:38;;;;;;;9.33;4.53;;;2.60;99.90;1.50;101701;;;;578700;244;24070;-75
2021/12/18 02:59:08;;;;;;;16.87;6.60;;;2.50;99.90;1.50;101697;;;;578388;244;24094;-74
2021/12/18 03:01:35;;;;;;;13.80;6.77;;;2.50;99.90;1.50;101706;;;;569365;244;24085;-74
2021/12/18 03:04:12;;;;;;;14.80;6.33;;;2.50;99.90;1.50;101701;;;;578263;243;24120;-75
2021/12/18 03:06:35;;;;;;;11.23;5.43;;;2.60;99.90;1.50;101707;;;;575405;245;24109;-74
2021/12/18 03:22:56;;;;;;;9.60;5.87;;;2.70;99.90;1.70;101704;;;;574033;249;24081;-75
2021/12/18 03:25:30;;;;;;;14.27;5.27;;;2.70;99.90;1.70;101695;;;;565002;250;24094;-75
2021/12/18 03:27:34;;;;;;;14.83;7.27;;;2.70;99.90;1.70;101684;;;;572810;245;24145;-74
2021/12/18 03:30:05;;;;;;;19.67;7.73;;;2.80;99.90;1.70;101689;;;;565010;250;24083;-75
2021/12/18 03:32:31;;;;;;;10.70;6.17;;;2.80;99.90;1.70;101682;;;;575029;245;24083;-75
2021/12/18 03:35:02;;;;;;;16.97;7.37;;;2.80;99.90;1.70;101682;;;;564930;250;24107;-74
2021/12/18 03:37:27;;;;;;;7.53;4.00;;;2.80;99.90;1.70;101682;;;;575521;245;24073;-74
2021/12/18 03:39:55;;;;;;;14.33;5.27;;;2.80;99.90;1.70;101688;;;;575693;245;24080;-74
2021/12/18 03:42:23;;;;;;;14.67;5.80;;;2.80;99.90;1.70;101673;;;;564958;250;24087;-75
2021/12/18 03:44:51;;;;;;;7.57;4.73;;;2.80;99.90;1.70;101678;;;;578537;245;24130;-74
2021/12/18 03:47:18;;;;;;;12.17;5.73;;;2.70;99.90;1.60;101667;;;;564967;250;24106;-75
2021/12/18 03:49:47;;;;;;;15.60;7.03;;;2.70;99.90;1.60;101670;;;;575615;243;24110;-75
2021/12/18 03:52:15;;;;;;;12.47;6.43;;;2.60;99.90;1.50;101660;;;;565866;249;24146;-75
2021/12/18 03:54:43;;;;;;;15.87;6.53;;;2.60;99.90;1.50;101663;;;;576410;245;24108;-75
2021/12/18 03:57:11;;;;;;;11.83;6.50;;;2.60;99.90;1.50;101652;;;;565390;250;24097;-76
2021/12/18 03:59:39;;;;;;;15.10;5.90;;;2.50;99.90;1.40;101639;;;;576411;245;24121;-74
2021/12/18 04:02:07;;;;;;;12.87;6.23;;;2.50;99.90;1.40;101639;;;;565157;250;25159;-76
2021/12/18 04:04:35;;;;;;;12.90;5.13;;;2.50;99.90;1.40;101641;;;;575830;245;24081;-75
2021/12/18 04:07:03;;;;;;;16.70;6.53;;;2.50;99.90;1.40;101643;;;;565210;250;24114;-77
2021/12/18 04:09:31;;;;;;;12.80;6.37;;;2.50;99.90;1.40;101640;;;;576063;245;24100;-75
2021/12/18 04:11:59;;;;;;;13.40;6.80;;;2.50;99.90;1.40;101654;;;;565224;250;24102;-76
2021/12/18 04:14:28;;;;;;;9.43;6.33;;;2.50;99.90;1.50;101650;;;;575714;245;24202;-75
2021/12/18 04:16:56;;;;;;;13.80;6.93;;;2.50;99.90;1.50;101648;;;;575562;245;24072;-75
2021/12/18 04:19:24;;;;;;;10.20;5.83;;;2.50;99.90;1.60;101652;;;;565187;250;24100;-75
2021/12/18 04:21:51;;;;;;;11.10;5.87;;;2.60;99.90;1.60;101654;;;;575953;245;24092;-74
2021/12/18 04:24:19;;;;;;;10.07;5.60;;;2.70;99.90;1.70;101658;;;;573797;250;24070;-74
2021/12/18 04:26:47;;;;;;;11.67;6.03;;;2.70;99.90;1.80;101657;;;;575831;245;24129;-76
2021/12/18 04:29:15;;;;;;;18.80;7.77;;;2.80;99.90;1.90;101654;;;;564998;250;24082;-75
2021/12/18 04:31:43;;;;;;;11.50;6.23;;;2.90;99.90;1.90;101646;;;;575726;245;24176;-76
2021/12/18 04:34:11;;;;;;;10.37;6.20;;;3.00;99.90;2.00;101647;;;;573991;244;24077;-75
2021/12/18 04:36:39;;;;;;;11.17;6.53;;;3.00;99.90;2.00;101632;;;;565390;250;24120;-75
2021/12/18 04:39:07;;;;;;;15.57;6.63;;;3.10;99.90;2.10;101643;;;;565010;250;24075;-75
2021/12/18 04:41:42;;;;;;;11.87;6.83;;;3.20;99.90;2.20;101636;;;;575720;245;24099;-76
2021/12/18 04:44:03;;;;;;;14.37;6.50;;;3.20;99.90;2.20;101629;;;;566899;250;24187;-75
2021/12/18 04:46:31;;;;;;;14.80;6.70;;;3.20;99.90;2.30;101630;;;;575716;245;24122;-75
2021/12/18 04:49:03;;;;;;;11.13;6.70;;;3.30;99.90;2.30;101619;;;;575646;245;24159;-74
2021/12/18 04:51:28;;;;;;;7.73;4.27;;;3.40;99.90;2.40;101631;;;;574993;245;24126;-74
2021/12/18 04:53:59;;;;;;;13.63;5.67;;;3.40;99.90;2.40;101631;;;;564722;250;24125;-75
2021/12/18 04:56:24;;;;;;;11.60;7.27;;;3.40;99.90;2.40;101629;;;;574412;245;24102;-74
2021/12/18 04:58:52;;;;;;;13.40;5.70;;;3.40;99.90;2.40;101630;;;;575741;245;24145;-75
2021/12/18 05:01:20;;;;;;;7.33;4.90;;;3.50;99.90;2.40;101621;;;;565143;248;24114;-75
2021/12/18 05:03:49;;;;;;;14.37;7.00;;;3.50;99.90;2.50;101609;;;;577134;245;24078;-75
2021/12/18 05:06:16;;;;;;;12.17;6.30;;;3.50;99.90;2.50;101612;;;;565921;250;24132;-75
2021/12/18 05:08:47;;;;;;;10.43;6.00;;;3.50;99.90;2.50;101620;;;;573684;246;24073;-75
2021/12/18 05:11:12;;;;;;;11.87;6.17;;;3.60;99.90;2.50;101608;;;;559647;252;24204;-75
2021/12/18 05:13:40;;;;;;;10.37;6.13;;;3.60;99.90;2.60;101609;;;;556275;253;24128;-75
2021/12/18 05:16:08;;;;;;;12.73;6.70;;;3.60;99.90;2.60;101598;;;;569743;248;24063;-74
2021/12/18 05:18:36;;;;;;;15.43;6.23;;;3.60;99.90;2.60;101594;;;;558378;253;24137;-75
2021/12/18 05:21:03;;;;;;;10.80;6.10;;;3.60;99.90;2.60;101589;;;;579620;244;24048;-74
2021/12/18 05:23:32;;;;;;;10.13;4.80;;;3.60;99.90;2.60;101587;;;;579604;244;24048;-75
2021/12/18 05:26:01;;;;;;;7.03;4.90;;;3.60;99.90;2.60;101579;;;;575778;244;24080;-75
2021/12/18 05:28:29;;;;;;;10.97;5.73;;;3.60;99.90;2.60;101582;;;;579570;244;24092;-75
2021/12/18 05:30:57;;;;;;;10.83;5.00;;;3.60;99.90;2.60;101571;;;;575784;244;24096;-75
2021/12/18 05:33:25;;;;;;;8.30;4.20;;;3.60;99.90;2.60;101573;;;;588575;239;24123;-76
2021/12/18 05:35:52;;;;;;;10.90;6.23;;;3.70;99.90;2.60;101566;;;;579595;244;24092;-76
2021/12/18 05:38:20;;;;;;;11.67;5.90;;;3.70;99.90;2.70;101561;;;;579431;243;24092;-74
2021/12/18 05:40:48;;;;;;;10.13;5.43;;;3.70;99.90;2.60;101542;;;;579265;244;24074;-74
2021/12/18 05:43:16;;;;;;;11.27;5.63;;;3.70;99.90;2.60;101542;;;;579321;244;24056;-74
2021/12/18 05:45:44;;;;;;;4.27;3.87;;;3.60;99.90;2.50;101553;;;;579297;244;24092;-76
2021/12/18 05:48:12;;;;;;;9.20;5.43;;;3.50;99.90;2.40;101541;;;;575399;239;24123;-75
2021/12/18 05:50:44;;;;;;;15.03;5.33;;;3.40;99.90;2.30;101541;;;;578802;244;24110;-77
2021/12/18 05:53:08;;;;;;;16.40;10.15;;;3.30;99.90;2.20;101536;;;;582441;244;46091;-77
2021/12/18 05:55:36;;;;;;;14.17;7.93;;;3.30;99.90;2.10;101535;;;;578921;244;24088;-77
2021/12/18 05:58:04;;;;;;;10.20;6.87;;;3.20;99.90;2.10;101534;;;;579236;243;24060;-77
2021/12/18 06:00:32;;;;;;;13.63;5.20;;;3.10;99.90;2.00;101521;;;;578910;244;24067;-77
2021/12/18 06:02:59;;;;;;;7.47;4.50;;;3.10;99.90;2.00;101536;;;;578865;243;24078;-77
2021/12/18 06:05:27;;;;;;;7.60;4.47;;;3.00;99.90;2.00;101543;;;;578961;244;24070;-77
2021/12/18 06:07:58;;;;;;;8.20;4.50;;;3.00;99.90;2.10;101541;;;;578794;244;24092;-77
2021/12/18 06:10:28;;;;;;;5.73;4.20;;;3.00;99.90;2.10;101544;;;;578899;244;24059;-77
2021/12/18 06:12:54;;;;;;;9.63;5.90;;;3.10;99.90;2.10;101536;;;;577203;242;24056;-77
2021/12/18 06:15:22;;;;;;;13.03;4.50;;;3.10;99.90;2.10;101530;;;;580615;244;24089;-77
2021/12/18 06:17:53;;;;;;;7.27;4.47;;;3.10;99.90;2.10;101524;;;;580226;244;24106;-76
2021/12/18 06:20:18;;;;;;;8.70;6.20;;;3.00;99.90;2.00;101526;;;;579964;244;24091;-74
2021/12/18 06:22:46;;;;;;;10.13;5.10;;;3.00;99.90;2.00;101527;;;;588909;238;24062;-74
2021/12/18 06:25:14;;;;;;;10.77;4.97;;;3.00;99.90;2.00;101531;;;;579760;244;24090;-75
2021/12/18 06:27:46;;;;;;;9.47;4.57;;;3.00;99.90;2.00;101519;;;;575991;244;24108;-74
2021/12/18 06:30:11;;;;;;;11.43;5.67;;;3.00;99.90;2.00;101521;;;;579093;244;24060;-77
2021/12/18 06:32:39;;;;;;;6.07;4.33;;;3.00;99.90;2.00;101518;;;;579574;244;24089;-77
2021/12/18 06:35:09;;;;;;;14.32;10.00;;;3.00;99.90;1.90;101511;;;;574460;244;46001;-76
2021/12/18 06:37:35;;;;;;;12.97;8.17;;;3.00;99.90;2.00;101515;;;;579130;244;24069;-77
2021/12/18 06:40:06;;;;;;;10.97;6.67;;;2.90;99.90;2.00;101510;;;;579578;244;24083;-76
2021/12/18 06:42:31;;;;;;;7.60;5.07;;;3.00;99.90;2.00;101514;;;;579148;243;24100;-75
2021/12/18 06:44:59;;;;;;;13.10;5.97;;;3.00;99.90;2.00;101514;;;;579560;244;24069;-75
2021/12/18 06:47:27;;;;;;;10.13;5.50;;;3.00;99.90;2.00;101513;;;;579561;244;25140;-74
2021/12/18 06:49:55;;;;;;;7.50;5.17;;;3.00;99.90;2.00;101499;;;;579432;244;24092;-76
2021/12/18 06:52:23;;;;;;;10.07;6.10;;;3.00;99.90;2.00;101504;;;;578914;243;24195;-77
2021/12/18 06:54:51;;;;;;;8.40;5.83;;;3.00;99.90;2.00;101504;;;;578845;243;24113;-77
2021/12/18 06:57:22;;;;;;;8.97;5.87;;;3.00;99.90;2.10;101510;;;;579006;244;24061;-76
2021/12/18 06:59:46;;;;;;;8.70;4.30;;;3.00;99.90;2.10;101510;;;;578345;245;24145;-76
2021/12/18 07:02:14;;;;;;;10.20;5.50;;;3.10;99.90;2.20;101500;;;;579730;244;24053;-77
2021/12/18 07:04:45;;;;;;;6.03;4.20;;;3.20;99.90;2.30;101492;;;;576370;245;24091;-76
2021/12/18 07:07:10;;;;;;;4.97;3.90;;;3.20;99.90;2.30;101483;;;;579415;244;24102;-74
2021/12/18 07:09:38;;;;;;;17.83;4.93;;;3.30;99.90;2.40;101490;;;;576375;245;24112;-75
2021/12/18 07:12:10;;;;;;;9.07;5.57;;;3.30;99.90;2.50;101477;;;;579916;244;24075;-74
2021/12/18 07:14:34;;;;;;;7.10;5.77;;;3.40;99.90;2.50;101486;;;;572551;250;24149;-76
2021/12/18 07:17:02;;;;;;;10.53;5.90;;;3.50;99.90;2.60;101490;;;;557050;254;24181;-78
2021/12/18 07:19:30;;;;;;;8.50;5.67;;;3.50;99.90;2.60;101491;;;;573647;250;24111;-75
2021/12/18 07:21:57;;;;;;;8.17;5.53;;;3.60;99.90;2.70;101491;;;;557063;254;24122;-75
2021/12/18 07:24:25;;;;;;;7.50;4.20;;;3.70;99.90;2.70;101485;;;;573835;248;24118;-75
2021/12/18 07:26:53;;;;;;;10.27;6.70;;;3.70;99.90;2.70;101481;;;;558408;254;24148;-75
2021/12/18 07:29:21;;;;;;;11.63;6.33;;;3.70;99.90;2.70;101478;;;;574741;245;24121;-74
2021/12/18 07:31:49;;;;;;;11.90;7.07;;;3.60;99.90;2.70;101474;;;;557673;254;24134;-75
2021/12/18 07:34:21;;;;;;;10.43;5.40;;;3.70;99.90;2.70;101472;;;;565595;249;24124;-75
2021/12/18 07:36:46;;;;;;;11.43;6.50;;;3.70;99.90;2.80;101474;;;;566365;249;24200;-74
2021/12/18 07:39:14;;;;;;;7.80;5.17;;;3.80;99.90;2.90;101472;;;;575004;245;24100;-75
2021/12/18 07:41:41;;;;;;;13.87;6.93;;;3.80;99.90;2.90;101471;;;;584971;245;24083;-75
2021/12/18 07:44:09;;;;;;;11.80;5.83;;;3.90;99.90;3.00;101459;;;;584708;244;24111;-75
2021/12/18 07:46:37;;;;;;;10.27;6.07;;;3.90;99.90;3.10;101455;;;;583672;245;24065;-75
2021/12/18 07:49:05;;;;;;;14.00;6.40;;;4.10;99.90;3.20;101452;;;;573358;241;24158;-76
2021/12/18 07:51:36;;;;;;;13.90;7.60;;;4.20;99.90;3.30;101437;;;;574800;245;24099;-77
2021/12/18 07:54:01;;;;;;;13.23;6.53;;;4.20;99.90;3.40;101443;;;;574923;246;24145;-77
2021/12/18 07:56:29;;;;;;;11.47;6.63;;;4.40;99.90;3.50;101425;;;;583956;246;24120;-77
2021/12/18 07:58:57;;;;;;;16.53;6.90;;;4.40;99.90;3.50;101416;;;;585105;245;24038;-76
2021/12/18 08:01:25;;;;;;;10.93;6.90;;;4.50;99.90;3.50;101409;;;;583852;246;24073;-75
2021/12/18 08:03:53;;;;;;;9.33;6.13;;;4.50;99.90;3.50;101400;;;;584818;245;24152;-76
2021/12/18 08:06:21;;;;;;;11.23;6.77;;;4.40;99.90;3.50;101392;;;;584839;240;24049;-77
2021/12/18 08:08:48;;;;;;;8.23;3.00;;;4.50;99.90;3.60;101373;;;;583462;246;24069;-77
2021/12/18 08:11:16;;;;;;;10.67;6.00;;;4.50;99.90;3.60;101378;;;;577317;244;24095;-78
2021/12/18 08:13:44;;;;;;;11.53;5.63;;;4.60;99.90;3.70;101375;;;;583247;245;24072;-78
2021/12/18 08:16:12;;;;;;;4.70;3.40;;;4.60;99.90;3.70;101371;;;;584829;245;24041;-77
2021/12/18 08:18:43;;;;;;;5.27;3.97;;;4.70;99.90;3.80;101365;;;;584823;245;24061;-76
2021/12/18 08:21:10;;;;;;;4.70;2.87;;;4.70;99.90;3.80;101352;;;;574881;246;24048;-78
2021/12/18 08:23:38;;;;;;;7.73;5.03;;;4.80;99.90;3.90;101360;;;;583747;245;24065;-76
2021/12/18 08:26:06;;;;;;;6.80;5.10;;;4.80;99.90;3.90;101355;;;;584885;240;24095;-76
2021/12/18 08:28:34;;;;;;;8.57;5.00;;;4.80;99.90;3.90;101331;;;;574908;246;24096;-77
2021/12/18 08:31:05;;;;;;;8.03;4.90;;;4.80;99.90;3.90;101344;;;;584795;245;24061;-76
2021/12/18 08:33:30;;;;;;;9.33;5.17;;;4.80;99.90;3.90;101333;;;;574624;246;24059;-78
2021/12/18 08:35:58;;;;;;;6.87;4.97;;;4.80;99.90;3.90;101325;;;;584844;244;24058;-76
2021/12/18 08:38:27;;;;;;;4.87;4.13;;;4.80;99.90;3.90;101332;;;;576416;245;24069;-77
2021/12/18 08:40:54;;;;;;;2.77;2.10;;;4.80;99.90;3.90;101324;;;;585743;245;24088;-77
2021/12/18 08:43:23;;;;;;;3.83;3.33;;;4.80;99.90;3.80;101310;;;;585608;244;24105;-77
2021/12/18 08:45:50;;;;;;;6.07;3.87;;;4.80;99.90;3.80;101298;;;;575446;245;24043;-76
2021/12/18 08:48:18;;;;;;;5.67;4.03;;;4.70;99.90;3.80;101313;;;;584146;245;24084;-77
2021/12/18 08:50:46;;;;;;;2.43;2.23;;;4.70;99.90;3.80;101306;;;;585283;245;24137;-75
2021/12/18 08:53:14;;;;;;;5.63;3.43;;;4.70;99.90;3.90;101315;;;;584823;240;24131;-76
2021/12/18 08:55:42;;;;;;;13.97;3.13;;;4.80;99.90;4.00;101315;;;;584829;244;24040;-77
2021/12/18 08:58:13;;;;;;;6.17;3.63;;;4.90;99.90;4.10;101328;;;;593586;237;24054;-77
2021/12/18 09:00:41;;;;;;;5.53;4.03;;;5.00;99.90;4.10;101321;;;;591456;241;24128;-75
2021/12/18 09:03:06;;;;;;;3.77;2.57;;;5.00;99.90;4.00;101336;;;;584793;241;24027;-75
2021/12/18 09:05:38;;;;;;;4.93;3.30;;;5.00;99.90;4.00;101329;;;;585201;241;24069;-75
2021/12/18 09:08:03;;;;;;;4.17;2.47;;;4.90;99.90;4.00;101337;;;;584944;241;25111;-75
2021/12/18 09:10:31;;;;;;;2.47;1.90;;;4.90;99.90;4.00;101335;;;;594392;241;24022;-75
2021/12/18 09:12:59;;;;;;;4.37;3.20;;;4.90;99.90;4.00;101341;;;;585033;241;24043;-75
2021/12/18 09:15:27;;;;;;;2.27;1.57;;;4.90;99.90;4.00;101340;;;;574799;246;24084;-75
2021/12/18 09:17:55;;;;;;;7.43;3.73;;;4.90;99.90;4.00;101341;;;;574838;241;24157;-76
2021/12/18 09:20:22;;;;;;;3.87;2.70;;;4.90;99.90;4.10;101340;;;;574883;246;24124;-74
2021/12/18 09:22:54;;;;;;;5.00;3.17;;;5.10;99.90;4.20;101340;;;;574828;246;24151;-75
2021/12/18 09:25:19;;;;;;;3.10;1.80;;;5.00;99.90;4.30;101335;;;;574689;246;24127;-78
2021/12/18 09:27:47;;;;;;;5.37;3.00;;;5.20;99.90;4.40;101325;;;;583651;245;24100;-78
2021/12/18 09:30:18;;;;;;;4.30;3.40;;;5.30;99.90;4.50;101318;;;;574716;246;24127;-77
2021/12/18 09:32:46;;;;;;;4.37;3.13;;;5.40;99.90;4.70;101314;;;;574727;246;24107;-75
2021/12/18 09:35:15;;;;;;;7.57;4.10;;;5.70;99.90;4.90;101306;;;;574708;246;24138;-77
2021/12/18 09:37:39;;;;;;;5.70;4.07;;;5.70;99.90;5.20;101301;;;;574400;246;24088;-75
2021/12/18 09:40:07;;;;;;;5.67;3.63;;;6.00;99.90;5.40;101314;;;;574836;246;24101;-74
2021/12/18 09:42:35;;;;;;;5.67;4.03;;;6.30;99.90;5.60;101299;;;;574847;246;24139;-75
2021/12/18 09:45:03;;;;;;;6.00;3.57;;;6.40;99.90;5.70;101306;;;;583624;245;25184;-75
2021/12/18 09:47:31;;;;;;;3.27;2.97;;;6.50;99.90;5.70;101302;;;;578680;244;24089;-77
2021/12/18 09:49:59;;;;;;;3.80;3.27;;;6.60;99.90;5.60;101306;;;;576305;245;24082;-75
2021/12/18 09:52:27;;;;;;;4.53;3.27;;;6.50;99.90;5.50;101299;;;;584718;244;24102;-76
2021/12/18 09:54:57;;;;;;;10.47;3.93;;;6.50;99.90;5.50;101290;;;;575452;245;24109;-77
2021/12/18 09:57:25;;;;;;;5.73;3.60;;;6.50;99.90;5.50;101294;;;;575141;245;24129;-76
2021/12/18 09:59:54;;;;;;;5.97;5.12;;;6.40;99.90;5.50;101297;;;;569934;245;35286;-74
2021/12/18 10:02:23;;;;;;;6.17;4.13;;;6.30;99.90;5.40;101299;;;;575110;245;24080;-74
2021/12/18 10:04:51;;;;;;;7.07;4.47;;;6.30;99.90;5.40;101294;;;;574992;245;24084;-74
2021/12/18 10:07:18;;;;;;;4.43;3.10;;;6.30;99.90;5.40;101288;;;;574970;246;24104;-74
2021/12/18 10:09:46;;;;;;;5.87;3.57;;;6.40;99.90;5.40;101282;;;;574663;246;24116;-74
2021/12/18 10:12:23;;;;;;;5.37;3.33;;;6.40;99.90;5.40;101270;;;;575129;246;24122;-74
2021/12/18 10:14:54;;;;;;;4.63;3.50;;;6.40;99.90;5.50;101273;;;;573424;246;24150;-76
2021/12/18 10:17:28;;;;;;;2.77;2.57;;;6.40;99.90;5.50;101287;;;;583838;246;24093;-74
2021/12/18 10:20:11;;;;;;;4.07;2.67;;;6.40;99.90;5.50;101293;;;;575176;246;25213;-76
2021/12/18 10:22:51;;;;;;;5.13;3.83;;;6.40;99.90;5.40;101283;;;;565786;250;24169;-75
2021/12/18 10:25:25;;;;;;;4.07;3.07;;;6.30;99.90;5.50;101294;;;;555496;254;24129;-74
2021/12/18 10:28:02;;;;;;;2.57;2.23;;;6.40;99.90;5.40;101287;;;;565213;250;24146;-75
2021/12/18 10:30:26;;;;;;;3.50;2.73;;;6.40;99.90;5.50;101286;;;;564536;250;24133;-75
2021/12/18 10:33:00;;;;;;;7.60;4.00;;;6.40;99.90;5.40;101279;;;;565476;250;24126;-75
2021/12/18 10:35:52;;;;;;;4.10;2.73;;;6.40;99.90;5.50;101268;;;;565377;250;24200;-76
2021/12/18 10:38:55;;;;;;;3.33;2.70;;;6.30;99.90;5.40;101255;;;;568654;250;24110;-75
2021/12/18 10:41:30;;;;;;;3.43;2.97;;;6.40;99.90;5.30;101252;;;;565451;250;24121;-75
2021/12/18 10:44:04;;;;;;;4.97;3.23;;;6.30;99.90;5.20;101258;;;;565455;250;24152;-75
2021/12/18 10:46:31;;;;;;;3.33;2.63;;;6.20;99.90;5.20;101255;;;;574053;245;24187;-76
2021/12/18 10:49:05;;;;;;;6.23;3.23;;;6.10;99.90;5.10;101247;;;;565507;250;24133;-74
2021/12/18 10:51:33;;;;;;;4.00;2.90;;;6.00;99.90;5.00;101243;;;;565717;250;24168;-76
2021/12/18 10:54:01;;;;;;;7.10;3.50;;;5.90;99.90;4.90;101228;;;;568734;250;24174;-75
2021/12/18 10:56:37;;;;;;;4.07;3.27;;;5.90;99.90;4.90;101236;;;;568418;248;24175;-76
2021/12/18 10:59:06;;;;;;;6.63;3.07;;;5.80;99.90;4.90;101231;;;;570432;242;24097;-74
2021/12/18 11:01:33;;;;;;;7.07;3.87;;;5.80;99.90;4.80;101228;;;;581266;243;24103;-75
2021/12/18 11:04:01;;;;;;;6.37;4.00;;;5.70;99.90;4.80;101215;;;;577252;245;24112;-76
2021/12/18 11:06:32;;;;;;;5.33;3.13;;;5.70;99.90;4.70;101221;;;;580733;243;24096;-76
2021/12/18 11:09:12;;;;;;;5.07;3.77;;;5.70;99.90;4.70;101198;;;;576625;245;24091;-76
2021/12/18 11:14:17;;;;;;;5.53;3.93;;;5.60;99.90;4.70;101190;;;;565320;249;24083;-77
2021/12/18 11:16:46;;;;;;;4.73;3.67;;;5.50;99.90;4.60;101188;;;;565769;249;25150;-76
2021/12/18 11:19:13;;;;;;;4.37;3.13;;;5.50;99.90;4.60;101188;;;;565042;250;24080;-74
2021/12/18 11:21:44;;;;;;;3.93;2.33;;;5.50;99.90;4.60;101175;;;;574469;250;24086;-79
2021/12/18 11:24:16;;;;;;;3.97;2.90;;;5.50;99.90;4.60;101184;;;;565963;250;24101;-74
2021/12/18 11:26:48;;;;;;;4.90;3.40;;;5.50;99.90;4.50;101186;;;;565678;249;24087;-75
2021/12/18 11:29:51;;;;;;;4.27;2.63;;;5.50;99.90;4.60;101178;;;;565944;248;25120;-74
2021/12/18 11:32:29;;;;;;;9.40;3.07;;;5.40;99.90;4.60;101176;;;;565894;250;24094;-76
2021/12/18 11:34:59;;;;;;;4.47;3.10;;;5.50;99.90;4.60;101197;;;;565875;249;24129;-76
2021/12/18 11:37:26;;;;;;;4.43;3.17;;;5.40;99.90;4.60;101189;;;;565457;250;24079;-74
2021/12/18 11:39:56;;;;;;;6.32;4.93;;;5.50;99.90;4.60;101193;;;;560635;250;35151;-75
2021/12/18 11:42:30;;;;;;;3.53;3.20;;;5.50;99.90;4.70;101185;;;;565651;250;24156;-76
2021/12/18 11:45:01;;;;;;;3.67;3.30;;;5.60;99.90;4.70;101194;;;;565548;250;24072;-75
2021/12/18 11:47:26;;;;;;;4.03;3.63;;;5.60;99.90;4.70;101182;;;;565467;250;24123;-76
2021/12/18 11:50:10;;;;;;;2.73;2.30;;;5.60;99.90;4.80;101179;;;;565648;248;24142;-76
2021/12/18 11:52:55;;;;;;;3.97;2.70;;;5.60;99.90;4.80;101186;;;;564483;250;24099;-75
2021/12/18 11:55:23;;;;;;;4.00;3.17;;;5.70;99.90;4.80;101192;;;;565712;250;24225;-74
2021/12/18 11:57:51;;;;;;;2.40;2.20;;;5.70;99.90;4.90;101192;;;;565349;248;24084;-74
2021/12/18 12:00:21;;;;;;;5.10;3.67;;;5.70;99.90;4.90;101200;;;;565110;250;24122;-75
2021/12/18 12:02:50;;;;;;;5.27;3.27;;;5.80;99.90;5.00;101192;;;;564849;250;24079;-74
2021/12/18 12:05:19;;;;;;;5.10;3.70;;;5.90;99.90;5.00;101208;;;;565142;250;24080;-75
2021/12/18 12:07:50;;;;;;;5.20;4.00;;;5.90;99.90;5.20;101201;;;;564780;250;24115;-76
2021/12/18 12:10:45;;;;;;;3.13;2.50;;;6.00;99.90;5.30;101186;;;;564731;250;24090;-75